SCO17EF EGPH-EGGD
Flight info
| Callsign | SCO17EF |
|---|---|
| Flight time | 0h 54m |
| Altitude | 29000 |
| Route | GOSAM P600 FENIK L612 ELBUS UL612 DCS UN864 SUBUK DCT NOKIN N862 KARNO DCT ALHUP DCT LUCSA N862 WEVBE |
| Aircraft | B738/M-SDE2E3FGHIRWXY/LB1 |
Departure
| Time | 2026-04-25 22:07 |
|---|---|
| Airport | Edinburgh Airport (EGPH) |
Arrival
| Time | 2026-04-25 23:02 |
|---|---|
| Airport | Bristol Airport (EGGD) |
| Time | Latitude | Longitude | Altitude | Speed | Heading |
|---|---|---|---|---|---|
| 2026-04-25 21:29 | 55.94884 | -3.36551 | 112 ft | 0 kts | 148° |
| 2026-04-25 21:29 | 55.94885 | -3.36553 | 115 ft | 0 kts | 148° |
| 2026-04-25 21:53 | 55.94899 | -3.36567 | 111 ft | 4 kts | 148° |
| 2026-04-25 21:54 | 55.94921 | -3.36589 | 111 ft | 4 kts | 169° |
| 2026-04-25 21:54 | 55.94945 | -3.36585 | 112 ft | 4 kts | 215° |
| 2026-04-25 21:54 | 55.94958 | -3.36561 | 111 ft | 0 kts | 238° |
| 2026-04-25 21:55 | 55.94956 | -3.36569 | 114 ft | 3 kts | 238° |
| 2026-04-25 21:56 | 55.94921 | -3.36670 | 111 ft | 14 kts | 238° |
| 2026-04-25 21:56 | 55.94898 | -3.36781 | 115 ft | 15 kts | 281° |
| 2026-04-25 21:56 | 55.94891 | -3.37000 | 112 ft | 17 kts | 238° |
| 2026-04-25 21:56 | 55.94820 | -3.37208 | 115 ft | 21 kts | 239° |
| 2026-04-25 21:57 | 55.94745 | -3.37429 | 111 ft | 16 kts | 238° |
| 2026-04-25 21:57 | 55.94687 | -3.37599 | 112 ft | 16 kts | 238° |
| 2026-04-25 21:57 | 55.94631 | -3.37763 | 114 ft | 15 kts | 239° |
| 2026-04-25 21:57 | 55.94610 | -3.37827 | 115 ft | 3 kts | 239° |
| 2026-04-25 21:58 | 55.94589 | -3.37889 | 115 ft | 12 kts | 239° |
| 2026-04-25 21:58 | 55.94535 | -3.38048 | 115 ft | 15 kts | 239° |
| 2026-04-25 21:58 | 55.94493 | -3.38175 | 115 ft | 9 kts | 239° |
| 2026-04-25 21:58 | 55.94460 | -3.38270 | 114 ft | 9 kts | 238° |
| 2026-04-25 21:59 | 55.94427 | -3.38367 | 115 ft | 10 kts | 238° |
| 2026-04-25 21:59 | 55.94391 | -3.38475 | 114 ft | 10 kts | 238° |
| 2026-04-25 21:59 | 55.94361 | -3.38561 | 113 ft | 7 kts | 239° |
| 2026-04-25 22:00 | 55.94316 | -3.38696 | 112 ft | 3 kts | 238° |
| 2026-04-25 22:00 | 55.94305 | -3.38727 | 112 ft | 3 kts | 238° |
| 2026-04-25 22:00 | 55.94291 | -3.38767 | 113 ft | 4 kts | 239° |
| 2026-04-25 22:00 | 55.94287 | -3.38781 | 115 ft | 1 kts | 241° |
| 2026-04-25 22:01 | 55.94286 | -3.38783 | 115 ft | 0 kts | 242° |
| 2026-04-25 22:01 | 55.94284 | -3.38789 | 115 ft | 2 kts | 243° |
| 2026-04-25 22:02 | 55.94293 | -3.38869 | 112 ft | 7 kts | 316° |
| 2026-04-25 22:02 | 55.94320 | -3.38902 | 112 ft | 2 kts | 328° |
| 2026-04-25 22:02 | 55.94324 | -3.38907 | 115 ft | 0 kts | 327° |
| 2026-04-25 22:04 | 55.94329 | -3.38911 | 115 ft | 3 kts | 328° |
| 2026-04-25 22:04 | 55.94389 | -3.38969 | 111 ft | 15 kts | 349° |
| 2026-04-25 22:04 | 55.94438 | -3.38906 | 113 ft | 3 kts | 59° |
| 2026-04-25 22:04 | 55.94441 | -3.38898 | 113 ft | 0 kts | 59° |
| 2026-04-25 22:07 | 55.94458 | -3.38847 | 112 ft | 26 kts | 59° |
| 2026-04-25 22:07 | 55.94585 | -3.38472 | 112 ft | 79 kts | 58° |
| 2026-04-25 22:07 | 55.95168 | -3.36748 | 276 ft | 147 kts | 59° |
| 2026-04-25 22:07 | 55.95696 | -3.35195 | 1088 ft | 148 kts | 60° |
| 2026-04-25 22:08 | 55.96318 | -3.33699 | 1852 ft | 155 kts | 44° |
| 2026-04-25 22:08 | 55.97189 | -3.32379 | 2402 ft | 180 kts | 45° |
| 2026-04-25 22:08 | 55.98209 | -3.30740 | 2719 ft | 212 kts | 44° |
| 2026-04-25 22:08 | 55.99365 | -3.28919 | 3020 ft | 235 kts | 39° |
| 2026-04-25 22:09 | 56.00960 | -3.27875 | 3318 ft | 260 kts | 360° |
| 2026-04-25 22:09 | 56.02666 | -3.28905 | 4078 ft | 262 kts | 319° |
| 2026-04-25 22:09 | 56.03640 | -3.31531 | 5179 ft | 254 kts | 283° |
| 2026-04-25 22:09 | 56.03624 | -3.34702 | 5758 ft | 261 kts | 252° |
| 2026-04-25 22:10 | 56.02975 | -3.37655 | 6096 ft | 262 kts | 249° |
| 2026-04-25 22:10 | 56.02361 | -3.40806 | 6896 ft | 268 kts | 251° |
| 2026-04-25 22:10 | 56.01822 | -3.43980 | 7895 ft | 267 kts | 252° |
| 2026-04-25 22:10 | 56.01309 | -3.47214 | 8748 ft | 272 kts | 253° |
| 2026-04-25 22:11 | 56.00825 | -3.50475 | 9646 ft | 275 kts | 254° |
| 2026-04-25 22:11 | 56.00343 | -3.53810 | 10503 ft | 279 kts | 254° |
| 2026-04-25 22:11 | 55.99859 | -3.57194 | 11322 ft | 282 kts | 254° |
| 2026-04-25 22:11 | 55.99369 | -3.60621 | 12153 ft | 286 kts | 254° |
| 2026-04-25 22:12 | 55.98874 | -3.64082 | 13018 ft | 290 kts | 254° |
| 2026-04-25 22:12 | 55.98368 | -3.67604 | 13899 ft | 294 kts | 254° |
| 2026-04-25 22:12 | 55.97857 | -3.71165 | 14728 ft | 297 kts | 254° |
| 2026-04-25 22:12 | 55.97520 | -3.73503 | 15299 ft | 299 kts | 254° |
| 2026-04-25 22:13 | 55.96822 | -3.78347 | 16446 ft | 302 kts | 255° |
| 2026-04-25 22:13 | 55.96301 | -3.81959 | 17296 ft | 305 kts | 255° |
| 2026-04-25 22:13 | 55.95766 | -3.85658 | 18156 ft | 308 kts | 255° |
| 2026-04-25 22:13 | 55.95224 | -3.89395 | 18952 ft | 312 kts | 255° |
| 2026-04-25 22:14 | 55.94674 | -3.93165 | 19688 ft | 315 kts | 255° |
| 2026-04-25 22:14 | 55.94114 | -3.96904 | 20432 ft | 317 kts | 252° |
| 2026-04-25 22:14 | 55.93221 | -4.00563 | 20671 ft | 330 kts | 239° |
| 2026-04-25 22:14 | 55.91843 | -4.03793 | 20897 ft | 323 kts | 228° |
| 2026-04-25 22:15 | 55.90185 | -4.06499 | 21113 ft | 333 kts | 218° |
| 2026-04-25 22:15 | 55.88220 | -4.08907 | 21284 ft | 353 kts | 216° |
| 2026-04-25 22:15 | 55.86117 | -4.11412 | 21427 ft | 373 kts | 216° |
| 2026-04-25 22:16 | 55.81665 | -4.16753 | 22065 ft | 397 kts | 216° |
| 2026-04-25 22:16 | 55.79369 | -4.19528 | 22714 ft | 399 kts | 216° |
| 2026-04-25 22:16 | 55.77068 | -4.22331 | 23369 ft | 401 kts | 216° |
| 2026-04-25 22:16 | 55.74726 | -4.24970 | 23908 ft | 408 kts | 207° |
| 2026-04-25 22:17 | 55.71962 | -4.26294 | 24342 ft | 418 kts | 187° |
| 2026-04-25 22:17 | 55.69043 | -4.26038 | 24869 ft | 424 kts | 172° |
| 2026-04-25 22:17 | 55.66224 | -4.24310 | 25249 ft | 434 kts | 156° |
| 2026-04-25 22:17 | 55.63559 | -4.21748 | 25256 ft | 435 kts | 153° |
| 2026-04-25 22:18 | 55.60971 | -4.19095 | 25265 ft | 435 kts | 152° |
| 2026-04-25 22:18 | 55.58353 | -4.16410 | 25263 ft | 435 kts | 153° |
| 2026-04-25 22:18 | 55.55722 | -4.13769 | 25265 ft | 435 kts | 153° |
| 2026-04-25 22:18 | 55.53073 | -4.11165 | 25257 ft | 435 kts | 154° |
| 2026-04-25 22:19 | 55.50404 | -4.08572 | 25375 ft | 441 kts | 154° |
| 2026-04-25 22:19 | 55.47735 | -4.05986 | 25893 ft | 441 kts | 154° |
| 2026-04-25 22:19 | 55.45039 | -4.03368 | 26499 ft | 440 kts | 154° |
| 2026-04-25 22:19 | 55.42347 | -4.00755 | 26930 ft | 444 kts | 154° |
| 2026-04-25 22:20 | 55.39628 | -3.98119 | 27328 ft | 448 kts | 154° |
| 2026-04-25 22:20 | 55.36909 | -3.95486 | 27741 ft | 451 kts | 154° |
| 2026-04-25 22:20 | 55.34124 | -3.92792 | 28169 ft | 453 kts | 154° |
| 2026-04-25 22:20 | 55.31388 | -3.90150 | 28582 ft | 455 kts | 154° |
| 2026-04-25 22:21 | 55.28597 | -3.87458 | 28985 ft | 458 kts | 154° |
| 2026-04-25 22:21 | 55.25789 | -3.84755 | 29275 ft | 462 kts | 154° |
| 2026-04-25 22:21 | 55.22948 | -3.82027 | 29260 ft | 468 kts | 154° |
| 2026-04-25 22:22 | 55.17260 | -3.76572 | 29255 ft | 461 kts | 154° |
| 2026-04-25 22:22 | 55.11672 | -3.71230 | 29274 ft | 461 kts | 154° |
| 2026-04-25 22:23 | 55.06026 | -3.65850 | 29259 ft | 457 kts | 154° |
| 2026-04-25 22:23 | 55.00531 | -3.60625 | 29260 ft | 451 kts | 154° |
| 2026-04-25 22:24 | 54.95006 | -3.55408 | 29257 ft | 452 kts | 154° |
| 2026-04-25 22:24 | 54.90388 | -3.51077 | 29263 ft | 453 kts | 154° |
| 2026-04-25 22:25 | 54.83908 | -3.45012 | 29262 ft | 455 kts | 154° |
| 2026-04-25 22:25 | 54.79266 | -3.40676 | 29262 ft | 455 kts | 154° |
| 2026-04-25 22:26 | 54.73626 | -3.35632 | 29252 ft | 453 kts | 161° |
| 2026-04-25 22:26 | 54.67564 | -3.33154 | 29267 ft | 445 kts | 178° |
| 2026-04-25 22:27 | 54.61414 | -3.32282 | 29258 ft | 445 kts | 178° |
| 2026-04-25 22:27 | 54.55230 | -3.31362 | 29242 ft | 445 kts | 178° |
| 2026-04-25 22:28 | 54.49083 | -3.30381 | 29249 ft | 445 kts | 178° |
| 2026-04-25 22:28 | 54.42932 | -3.29337 | 29247 ft | 446 kts | 177° |
| 2026-04-25 22:29 | 54.36738 | -3.28322 | 29247 ft | 447 kts | 176° |
| 2026-04-25 22:29 | 54.30621 | -3.26531 | 29251 ft | 449 kts | 172° |
| 2026-04-25 22:30 | 54.21436 | -3.23396 | 29249 ft | 449 kts | 172° |
| 2026-04-25 22:30 | 54.16288 | -3.21715 | 29245 ft | 448 kts | 172° |
| 2026-04-25 22:31 | 54.09141 | -3.19449 | 29244 ft | 448 kts | 173° |
| 2026-04-25 22:31 | 54.03047 | -3.17538 | 29245 ft | 448 kts | 173° |
| 2026-04-25 22:32 | 53.96914 | -3.15620 | 29239 ft | 447 kts | 173° |
| 2026-04-25 22:32 | 53.90815 | -3.13718 | 29236 ft | 448 kts | 172° |
| 2026-04-25 22:33 | 53.84649 | -3.11797 | 29241 ft | 450 kts | 172° |
| 2026-04-25 22:33 | 53.78505 | -3.09888 | 29236 ft | 452 kts | 172° |
| 2026-04-25 22:34 | 53.72310 | -3.07970 | 29237 ft | 453 kts | 172° |
| 2026-04-25 22:34 | 53.66083 | -3.06047 | 29222 ft | 453 kts | 173° |
| 2026-04-25 22:35 | 53.59902 | -3.04145 | 29233 ft | 453 kts | 173° |
| 2026-04-25 22:35 | 53.53698 | -3.02241 | 29230 ft | 452 kts | 173° |
| 2026-04-25 22:36 | 53.47549 | -3.00360 | 29232 ft | 451 kts | 173° |
| 2026-04-25 22:36 | 53.41368 | -2.98474 | 29266 ft | 450 kts | 173° |
| 2026-04-25 22:37 | 53.35245 | -2.96613 | 29261 ft | 450 kts | 173° |
| 2026-04-25 22:37 | 53.29067 | -2.94739 | 29268 ft | 449 kts | 173° |
| 2026-04-25 22:38 | 53.22926 | -2.92882 | 29264 ft | 450 kts | 173° |
| 2026-04-25 22:38 | 53.16747 | -2.91019 | 29257 ft | 451 kts | 173° |
| 2026-04-25 22:39 | 53.10588 | -2.89168 | 29252 ft | 452 kts | 173° |
| 2026-04-25 22:39 | 53.04355 | -2.88392 | 29246 ft | 446 kts | 187° |
| 2026-04-25 22:40 | 52.98187 | -2.89075 | 29229 ft | 447 kts | 187° |
| 2026-04-25 22:40 | 52.91944 | -2.89609 | 28870 ft | 448 kts | 186° |
| 2026-04-25 22:41 | 52.88842 | -2.89879 | 28599 ft | 444 kts | 188° |
| 2026-04-25 22:41 | 52.85825 | -2.90449 | 28332 ft | 440 kts | 191° |
| 2026-04-25 22:41 | 52.82793 | -2.91218 | 28065 ft | 438 kts | 192° |
| 2026-04-25 22:41 | 52.79790 | -2.92019 | 27802 ft | 436 kts | 192° |
| 2026-04-25 22:42 | 52.76791 | -2.92781 | 27541 ft | 435 kts | 192° |
| 2026-04-25 22:42 | 52.73796 | -2.93500 | 27270 ft | 434 kts | 191° |
| 2026-04-25 22:42 | 52.70805 | -2.94182 | 27015 ft | 433 kts | 189° |
| 2026-04-25 22:42 | 52.67830 | -2.94540 | 26768 ft | 433 kts | 185° |
| 2026-04-25 22:43 | 52.64820 | -2.94727 | 26509 ft | 431 kts | 185° |
| 2026-04-25 22:43 | 52.61837 | -2.94920 | 26024 ft | 427 kts | 185° |
| 2026-04-25 22:43 | 52.58889 | -2.95137 | 25511 ft | 421 kts | 185° |
| 2026-04-25 22:43 | 52.55976 | -2.95374 | 24961 ft | 416 kts | 185° |
| 2026-04-25 22:44 | 52.53096 | -2.95617 | 24413 ft | 413 kts | 185° |
| 2026-04-25 22:44 | 52.50236 | -2.95861 | 23862 ft | 410 kts | 185° |
| 2026-04-25 22:44 | 52.47396 | -2.96100 | 23202 ft | 407 kts | 185° |
| 2026-04-25 22:44 | 52.44622 | -2.96332 | 22629 ft | 402 kts | 185° |
| 2026-04-25 22:45 | 52.41839 | -2.96563 | 22074 ft | 398 kts | 185° |
| 2026-04-25 22:45 | 52.39081 | -2.96792 | 21513 ft | 394 kts | 185° |
| 2026-04-25 22:45 | 52.36351 | -2.97017 | 20980 ft | 391 kts | 185° |
| 2026-04-25 22:45 | 52.33635 | -2.97242 | 20446 ft | 388 kts | 185° |
| 2026-04-25 22:46 | 52.30949 | -2.97463 | 19918 ft | 384 kts | 185° |
| 2026-04-25 22:46 | 52.28285 | -2.97680 | 19395 ft | 382 kts | 185° |
| 2026-04-25 22:46 | 52.25669 | -2.97887 | 18883 ft | 379 kts | 185° |
| 2026-04-25 22:46 | 52.23044 | -2.98092 | 18339 ft | 377 kts | 185° |
| 2026-04-25 22:47 | 52.20428 | -2.98296 | 17761 ft | 374 kts | 185° |
| 2026-04-25 22:47 | 52.17827 | -2.98499 | 17215 ft | 371 kts | 185° |
| 2026-04-25 22:47 | 52.15284 | -2.98697 | 16694 ft | 368 kts | 184° |
| 2026-04-25 22:47 | 52.12737 | -2.98896 | 16326 ft | 362 kts | 184° |
| 2026-04-25 22:48 | 52.10232 | -2.99097 | 16265 ft | 360 kts | 184° |
| 2026-04-25 22:48 | 52.07765 | -2.99300 | 16233 ft | 348 kts | 184° |
| 2026-04-25 22:48 | 52.05397 | -2.99494 | 16220 ft | 332 kts | 184° |
| 2026-04-25 22:48 | 52.03143 | -2.99679 | 16215 ft | 317 kts | 185° |
| 2026-04-25 22:49 | 52.01007 | -2.99854 | 16248 ft | 303 kts | 185° |
| 2026-04-25 22:49 | 51.98931 | -3.00023 | 16248 ft | 290 kts | 185° |
| 2026-04-25 22:49 | 51.96961 | -3.00184 | 16253 ft | 278 kts | 185° |
| 2026-04-25 22:49 | 51.95075 | -3.00227 | 16255 ft | 267 kts | 173° |
| 2026-04-25 22:50 | 51.93325 | -2.99371 | 16101 ft | 262 kts | 161° |
| 2026-04-25 22:50 | 51.91578 | -2.98310 | 15231 ft | 282 kts | 161° |
| 2026-04-25 22:50 | 51.89653 | -2.97128 | 14434 ft | 304 kts | 160° |
| 2026-04-25 22:50 | 51.87678 | -2.95919 | 14250 ft | 310 kts | 160° |
| 2026-04-25 22:51 | 51.85533 | -2.94619 | 13962 ft | 346 kts | 160° |
| 2026-04-25 22:51 | 51.83262 | -2.93249 | 13602 ft | 347 kts | 160° |
| 2026-04-25 22:51 | 51.81016 | -2.91900 | 13256 ft | 340 kts | 160° |
| 2026-04-25 22:51 | 51.78814 | -2.90582 | 12930 ft | 333 kts | 160° |
| 2026-04-25 22:52 | 51.76661 | -2.89296 | 12621 ft | 327 kts | 160° |
| 2026-04-25 22:52 | 51.74541 | -2.88033 | 12327 ft | 321 kts | 160° |
| 2026-04-25 22:52 | 51.72493 | -2.86816 | 12041 ft | 315 kts | 160° |
| 2026-04-25 22:52 | 51.71108 | -2.85999 | 11851 ft | 311 kts | 161° |
| 2026-04-25 22:53 | 51.68335 | -2.85179 | 11461 ft | 303 kts | 186° |
| 2026-04-25 22:53 | 51.66353 | -2.86148 | 11216 ft | 296 kts | 209° |
| 2026-04-25 22:53 | 51.64618 | -2.87869 | 11006 ft | 290 kts | 214° |
| 2026-04-25 22:53 | 51.62956 | -2.89666 | 10826 ft | 284 kts | 214° |
| 2026-04-25 22:54 | 51.61349 | -2.91435 | 10687 ft | 282 kts | 214° |
| 2026-04-25 22:54 | 51.59734 | -2.93226 | 10550 ft | 280 kts | 215° |
| 2026-04-25 22:54 | 51.58138 | -2.94999 | 10326 ft | 280 kts | 215° |
| 2026-04-25 22:54 | 51.56521 | -2.96797 | 10043 ft | 284 kts | 215° |
| 2026-04-25 22:55 | 51.54886 | -2.98613 | 9569 ft | 287 kts | 215° |
| 2026-04-25 22:55 | 51.53243 | -3.00434 | 9000 ft | 284 kts | 215° |
| 2026-04-25 22:55 | 51.51622 | -3.02227 | 8467 ft | 281 kts | 215° |
| 2026-04-25 22:55 | 51.50016 | -3.04002 | 7930 ft | 278 kts | 215° |
| 2026-04-25 22:56 | 51.48433 | -3.05745 | 7479 ft | 274 kts | 213° |
| 2026-04-25 22:56 | 51.46702 | -3.06826 | 7030 ft | 271 kts | 188° |
| 2026-04-25 22:56 | 51.44836 | -3.06979 | 6614 ft | 267 kts | 181° |
| 2026-04-25 22:56 | 51.42980 | -3.06985 | 6148 ft | 264 kts | 180° |
| 2026-04-25 22:57 | 51.41144 | -3.06992 | 5688 ft | 262 kts | 180° |
| 2026-04-25 22:57 | 51.39329 | -3.07011 | 5237 ft | 259 kts | 180° |
| 2026-04-25 22:57 | 51.37556 | -3.06892 | 4773 ft | 256 kts | 166° |
| 2026-04-25 22:57 | 51.36078 | -3.05501 | 4489 ft | 244 kts | 128° |
| 2026-04-25 22:58 | 51.35483 | -3.03087 | 4275 ft | 231 kts | 90° |
| 2026-04-25 22:58 | 51.35934 | -3.00694 | 4007 ft | 226 kts | 59° |
| 2026-04-25 22:58 | 51.36637 | -2.98490 | 3706 ft | 217 kts | 69° |
| 2026-04-25 22:58 | 51.37088 | -2.96273 | 3453 ft | 201 kts | 78° |
| 2026-04-25 22:59 | 51.37338 | -2.94151 | 3193 ft | 187 kts | 81° |
| 2026-04-25 22:59 | 51.37492 | -2.92142 | 2963 ft | 183 kts | 85° |
| 2026-04-25 22:59 | 51.37580 | -2.90102 | 2720 ft | 185 kts | 87° |
| 2026-04-25 22:59 | 51.37655 | -2.88043 | 2457 ft | 183 kts | 87° |
| 2026-04-25 23:00 | 51.37728 | -2.86064 | 2214 ft | 172 kts | 86° |
| 2026-04-25 23:00 | 51.37797 | -2.84215 | 2022 ft | 158 kts | 86° |
| 2026-04-25 23:00 | 51.37861 | -2.82525 | 1762 ft | 145 kts | 87° |
| 2026-04-25 23:00 | 51.37919 | -2.80986 | 1632 ft | 137 kts | 87° |
| 2026-04-25 23:01 | 51.37978 | -2.79443 | 1422 ft | 139 kts | 87° |
| 2026-04-25 23:01 | 51.38034 | -2.77916 | 1227 ft | 136 kts | 88° |
| 2026-04-25 23:01 | 51.38093 | -2.76405 | 1033 ft | 135 kts | 88° |
| 2026-04-25 23:01 | 51.38154 | -2.74918 | 878 ft | 136 kts | 89° |
| 2026-04-25 23:02 | 51.38210 | -2.73399 | 668 ft | 135 kts | 89° |
| 2026-04-25 23:02 | 51.38263 | -2.72019 | 622 ft | 100 kts | 86° |
| 2026-04-25 23:02 | 51.38290 | -2.71449 | 603 ft | 5 kts | 52° |
| 2026-04-25 23:02 | 51.38325 | -2.71456 | 603 ft | 6 kts | 323° |
| 2026-04-25 23:03 | 51.38377 | -2.71514 | 616 ft | 12 kts | 327° |
| 2026-04-25 23:03 | 51.38462 | -2.71537 | 609 ft | 12 kts | 357° |
| 2026-04-25 23:03 | 51.38532 | -2.71544 | 611 ft | 5 kts | 356° |
| 2026-04-25 23:03 | 51.38537 | -2.71544 | 611 ft | 0 kts | 356° |